sensor_id;sensor_type;location;lat;lon;timestamp;temperature;humidity
21830;DHT22;11077;50.264;6.798;2022-09-12T00:02:02;10.80;99.90
21830;DHT22;11077;50.264;6.798;2022-09-12T00:04:29;10.80;99.90
21830;DHT22;11077;50.264;6.798;2022-09-12T00:06:56;10.80;99.90
21830;DHT22;11077;50.264;6.798;2022-09-12T00:09:24;10.70;99.90
21830;DHT22;11077;50.264;6.798;2022-09-12T00:11:51;10.70;99.90
21830;DHT22;11077;50.264;6.798;2022-09-12T00:14:18;10.80;99.90
21830;DHT22;11077;50.264;6.798;2022-09-12T00:16:46;10.80;99.90
21830;DHT22;11077;50.264;6.798;2022-09-12T00:19:14;10.70;99.90
21830;DHT22;11077;50.264;6.798;2022-09-12T00:21:41;10.60;99.90
21830;DHT22;11077;50.264;6.798;2022-09-12T00:24:09;10.60;99.90
21830;DHT22;11077;50.264;6.798;2022-09-12T00:26:36;10.60;99.90
21830;DHT22;11077;50.264;6.798;2022-09-12T00:29:04;10.60;99.90
21830;DHT22;11077;50.264;6.798;2022-09-12T00:31:31;10.50;99.90
21830;DHT22;11077;50.264;6.798;2022-09-12T00:34:00;10.50;99.90
21830;DHT22;11077;50.264;6.798;2022-09-12T00:36:28;10.50;99.90
21830;DHT22;11077;50.264;6.798;2022-09-12T00:38:56;10.50;99.90
21830;DHT22;11077;50.264;6.798;2022-09-12T00:41:26;10.50;99.90
21830;DHT22;11077;50.264;6.798;2022-09-12T00:43:55;10.50;99.90
21830;DHT22;11077;50.264;6.798;2022-09-12T00:46:28;10.50;99.90
21830;DHT22;11077;50.264;6.798;2022-09-12T00:49:00;10.50;99.90
21830;DHT22;11077;50.264;6.798;2022-09-12T00:51:30;10.50;99.90
21830;DHT22;11077;50.264;6.798;2022-09-12T00:53:59;10.50;99.90
21830;DHT22;11077;50.264;6.798;2022-09-12T00:56:27;10.50;99.90
21830;DHT22;11077;50.264;6.798;2022-09-12T00:58:58;10.40;99.90
21830;DHT22;11077;50.264;6.798;2022-09-12T01:01:27;10.50;99.90
21830;DHT22;11077;50.264;6.798;2022-09-12T01:03:54;10.50;99.90
21830;DHT22;11077;50.264;6.798;2022-09-12T01:06:25;10.50;99.90
21830;DHT22;11077;50.264;6.798;2022-09-12T01:08:53;10.50;99.90
21830;DHT22;11077;50.264;6.798;2022-09-12T01:11:21;10.50;99.90
21830;DHT22;11077;50.264;6.798;2022-09-12T01:13:48;10.40;99.90
21830;DHT22;11077;50.264;6.798;2022-09-12T01:16:16;10.50;99.90
21830;DHT22;11077;50.264;6.798;2022-09-12T01:18:54;10.50;99.90
21830;DHT22;11077;50.264;6.798;2022-09-12T01:21:34;10.40;99.90
21830;DHT22;11077;50.264;6.798;2022-09-12T01:24:26;10.50;99.90
21830;DHT22;11077;50.264;6.798;2022-09-12T01:27:29;10.40;99.90
21830;DHT22;11077;50.264;6.798;2022-09-12T01:33:05;10.40;99.90
21830;DHT22;11077;50.264;6.798;2022-09-12T01:35:43;10.30;99.90
21830;DHT22;11077;50.264;6.798;2022-09-12T01:38:20;10.30;99.90
21830;DHT22;11077;50.264;6.798;2022-09-12T01:40:58;10.30;99.90
21830;DHT22;11077;50.264;6.798;2022-09-12T01:43:31;10.30;99.90
21830;DHT22;11077;50.264;6.798;2022-09-12T01:46:05;10.20;99.90
21830;DHT22;11077;50.264;6.798;2022-09-12T01:48:37;10.20;99.90
21830;DHT22;11077;50.264;6.798;2022-09-12T01:51:10;10.20;99.90
21830;DHT22;11077;50.264;6.798;2022-09-12T01:53:43;10.10;99.90
21830;DHT22;11077;50.264;6.798;2022-09-12T01:56:14;10.10;99.90
21830;DHT22;11077;50.264;6.798;2022-09-12T01:58:49;10.00;99.90
21830;DHT22;11077;50.264;6.798;2022-09-12T02:01:20;10.00;99.90
21830;DHT22;11077;50.264;6.798;2022-09-12T02:03:56;10.00;99.90
21830;DHT22;11077;50.264;6.798;2022-09-12T02:06:27;10.00;99.90
21830;DHT22;11077;50.264;6.798;2022-09-12T02:08:58;10.00;99.90
21830;DHT22;11077;50.264;6.798;2022-09-12T02:11:31;10.00;99.90
21830;DHT22;11077;50.264;6.798;2022-09-12T02:14:02;10.00;99.90
21830;DHT22;11077;50.264;6.798;2022-09-12T02:16:32;10.00;99.90
21830;DHT22;11077;50.264;6.798;2022-09-12T02:19:07;10.00;99.90
21830;DHT22;11077;50.264;6.798;2022-09-12T02:21:37;10.10;99.90
21830;DHT22;11077;50.264;6.798;2022-09-12T02:24:07;10.10;99.90
21830;DHT22;11077;50.264;6.798;2022-09-12T02:26:43;10.10;99.90
21830;DHT22;11077;50.264;6.798;2022-09-12T02:29:11;10.10;99.90
21830;DHT22;11077;50.264;6.798;2022-09-12T02:31:43;10.10;99.90
21830;DHT22;11077;50.264;6.798;2022-09-12T02:34:28;10.10;99.90
21830;DHT22;11077;50.264;6.798;2022-09-12T02:37:06;10.00;99.90
21830;DHT22;11077;50.264;6.798;2022-09-12T02:39:34;10.00;99.90
21830;DHT22;11077;50.264;6.798;2022-09-12T02:42:05;10.00;99.90
21830;DHT22;11077;50.264;6.798;2022-09-12T02:44:36;9.90;99.90
21830;DHT22;11077;50.264;6.798;2022-09-12T02:47:07;9.90;99.90
21830;DHT22;11077;50.264;6.798;2022-09-12T02:49:38;9.90;99.90
21830;DHT22;11077;50.264;6.798;2022-09-12T02:52:05;9.80;99.90
21830;DHT22;11077;50.264;6.798;2022-09-12T02:54:33;9.80;99.90
21830;DHT22;11077;50.264;6.798;2022-09-12T02:57:00;9.80;99.90
21830;DHT22;11077;50.264;6.798;2022-09-12T02:59:27;9.80;99.90
21830;DHT22;11077;50.264;6.798;2022-09-12T03:02:06;9.80;99.90
21830;DHT22;11077;50.264;6.798;2022-09-12T03:04:57;9.70;99.90
21830;DHT22;11077;50.264;6.798;2022-09-12T03:07:43;9.70;99.90
21830;DHT22;11077;50.264;6.798;2022-09-12T03:10:17;9.80;99.90
21830;DHT22;11077;50.264;6.798;2022-09-12T03:12:54;9.80;99.90
21830;DHT22;11077;50.264;6.798;2022-09-12T03:15:37;9.80;99.90
21830;DHT22;11077;50.264;6.798;2022-09-12T03:18:17;9.80;99.90
21830;DHT22;11077;50.264;6.798;2022-09-12T03:20:52;9.70;99.90
21830;DHT22;11077;50.264;6.798;2022-09-12T03:23:28;9.70;99.90
21830;DHT22;11077;50.264;6.798;2022-09-12T03:26:01;9.70;99.90
21830;DHT22;11077;50.264;6.798;2022-09-12T03:28:32;9.70;99.90
21830;DHT22;11077;50.264;6.798;2022-09-12T03:31:11;9.60;99.90
21830;DHT22;11077;50.264;6.798;2022-09-12T03:33:39;9.70;99.90
21830;DHT22;11077;50.264;6.798;2022-09-12T03:36:14;9.70;99.90
21830;DHT22;11077;50.264;6.798;2022-09-12T03:38:42;9.70;99.90
21830;DHT22;11077;50.264;6.798;2022-09-12T03:41:10;9.70;99.90
21830;DHT22;11077;50.264;6.798;2022-09-12T03:43:37;9.70;99.90
21830;DHT22;11077;50.264;6.798;2022-09-12T03:46:04;9.60;99.90
21830;DHT22;11077;50.264;6.798;2022-09-12T03:48:32;9.60;99.90
21830;DHT22;11077;50.264;6.798;2022-09-12T03:51:00;9.60;99.90
21830;DHT22;11077;50.264;6.798;2022-09-12T03:53:29;9.60;99.90
21830;DHT22;11077;50.264;6.798;2022-09-12T03:55:57;9.50;99.90
21830;DHT22;11077;50.264;6.798;2022-09-12T03:58:29;9.50;99.90
21830;DHT22;11077;50.264;6.798;2022-09-12T04:00:57;9.60;99.90
21830;DHT22;11077;50.264;6.798;2022-09-12T04:03:24;9.50;99.90
21830;DHT22;11077;50.264;6.798;2022-09-12T04:05:52;9.50;99.90
21830;DHT22;11077;50.264;6.798;2022-09-12T04:08:19;9.60;99.90
21830;DHT22;11077;50.264;6.798;2022-09-12T04:10:49;9.60;99.90
21830;DHT22;11077;50.264;6.798;2022-09-12T04:13:16;9.70;99.90
21830;DHT22;11077;50.264;6.798;2022-09-12T04:15:49;9.70;99.90
21830;DHT22;11077;50.264;6.798;2022-09-12T04:18:21;9.70;99.90
21830;DHT22;11077;50.264;6.798;2022-09-12T04:20:49;9.80;99.90
21830;DHT22;11077;50.264;6.798;2022-09-12T04:23:18;9.80;99.90
21830;DHT22;11077;50.264;6.798;2022-09-12T04:25:53;9.80;99.90
21830;DHT22;11077;50.264;6.798;2022-09-12T04:28:21;9.80;99.90
21830;DHT22;11077;50.264;6.798;2022-09-12T04:30:49;9.90;99.90
21830;DHT22;11077;50.264;6.798;2022-09-12T04:33:16;9.90;99.90
21830;DHT22;11077;50.264;6.798;2022-09-12T04:35:44;9.90;99.90
21830;DHT22;11077;50.264;6.798;2022-09-12T04:38:12;10.00;99.90
21830;DHT22;11077;50.264;6.798;2022-09-12T04:40:44;10.00;99.90
21830;DHT22;11077;50.264;6.798;2022-09-12T04:43:15;9.90;99.90
21830;DHT22;11077;50.264;6.798;2022-09-12T04:45:43;9.90;99.90
21830;DHT22;11077;50.264;6.798;2022-09-12T04:48:11;9.90;99.90
21830;DHT22;11077;50.264;6.798;2022-09-12T04:50:38;9.80;99.90
21830;DHT22;11077;50.264;6.798;2022-09-12T04:53:06;9.80;99.90
21830;DHT22;11077;50.264;6.798;2022-09-12T04:55:34;9.80;99.90
21830;DHT22;11077;50.264;6.798;2022-09-12T04:58:01;9.80;99.90
21830;DHT22;11077;50.264;6.798;2022-09-12T05:00:30;9.80;99.90
21830;DHT22;11077;50.264;6.798;2022-09-12T05:02:57;9.90;99.90
21830;DHT22;11077;50.264;6.798;2022-09-12T05:05:25;9.90;99.90
21830;DHT22;11077;50.264;6.798;2022-09-12T05:07:52;9.90;99.90
21830;DHT22;11077;50.264;6.798;2022-09-12T05:10:20;9.90;99.90
21830;DHT22;11077;50.264;6.798;2022-09-12T05:12:48;9.90;99.90
21830;DHT22;11077;50.264;6.798;2022-09-12T05:15:16;9.90;99.90
21830;DHT22;11077;50.264;6.798;2022-09-12T05:17:45;9.80;99.90
21830;DHT22;11077;50.264;6.798;2022-09-12T05:20:14;9.90;99.90
21830;DHT22;11077;50.264;6.798;2022-09-12T05:22:42;9.90;99.90
21830;DHT22;11077;50.264;6.798;2022-09-12T05:25:09;9.90;99.90
21830;DHT22;11077;50.264;6.798;2022-09-12T05:27:37;9.90;99.90
21830;DHT22;11077;50.264;6.798;2022-09-12T05:30:05;9.90;99.90
21830;DHT22;11077;50.264;6.798;2022-09-12T05:32:33;9.90;99.90
21830;DHT22;11077;50.264;6.798;2022-09-12T05:35:02;9.90;99.90
21830;DHT22;11077;50.264;6.798;2022-09-12T05:37:30;9.90;99.90
21830;DHT22;11077;50.264;6.798;2022-09-12T05:39:57;9.90;99.90
21830;DHT22;11077;50.264;6.798;2022-09-12T05:42:24;10.00;99.90
21830;DHT22;11077;50.264;6.798;2022-09-12T05:44:52;10.00;99.90
21830;DHT22;11077;50.264;6.798;2022-09-12T05:47:19;10.00;99.90
21830;DHT22;11077;50.264;6.798;2022-09-12T05:49:46;10.10;99.90
21830;DHT22;11077;50.264;6.798;2022-09-12T05:52:17;10.10;99.90
21830;DHT22;11077;50.264;6.798;2022-09-12T05:54:45;10.10;99.90
21830;DHT22;11077;50.264;6.798;2022-09-12T05:57:13;10.00;99.90
21830;DHT22;11077;50.264;6.798;2022-09-12T05:59:41;10.10;99.90
21830;DHT22;11077;50.264;6.798;2022-09-12T06:02:10;10.10;99.90
21830;DHT22;11077;50.264;6.798;2022-09-12T06:04:38;10.10;99.90
21830;DHT22;11077;50.264;6.798;2022-09-12T06:07:06;10.10;99.90
21830;DHT22;11077;50.264;6.798;2022-09-12T06:09:35;10.20;99.90
21830;DHT22;11077;50.264;6.798;2022-09-12T06:12:03;10.20;99.90
21830;DHT22;11077;50.264;6.798;2022-09-12T06:14:30;10.30;99.90
21830;DHT22;11077;50.264;6.798;2022-09-12T06:16:57;10.40;99.90
21830;DHT22;11077;50.264;6.798;2022-09-12T06:19:25;10.40;99.90
21830;DHT22;11077;50.264;6.798;2022-09-12T06:21:53;10.50;99.90
21830;DHT22;11077;50.264;6.798;2022-09-12T06:24:21;10.60;99.90
21830;DHT22;11077;50.264;6.798;2022-09-12T06:26:50;10.60;99.90
21830;DHT22;11077;50.264;6.798;2022-09-12T06:29:18;10.70;99.90
21830;DHT22;11077;50.264;6.798;2022-09-12T06:31:45;10.90;99.90
21830;DHT22;11077;50.264;6.798;2022-09-12T06:34:14;11.00;99.90
21830;DHT22;11077;50.264;6.798;2022-09-12T06:36:43;11.10;99.90
21830;DHT22;11077;50.264;6.798;2022-09-12T06:39:12;11.20;99.90
21830;DHT22;11077;50.264;6.798;2022-09-12T06:41:40;11.30;99.90
21830;DHT22;11077;50.264;6.798;2022-09-12T06:44:11;11.30;99.90
21830;DHT22;11077;50.264;6.798;2022-09-12T06:46:38;11.50;99.90
21830;DHT22;11077;50.264;6.798;2022-09-12T06:49:07;11.60;99.90
21830;DHT22;11077;50.264;6.798;2022-09-12T06:54:44;11.80;99.90
21830;DHT22;11077;50.264;6.798;2022-09-12T06:55:33;12.00;99.90
21830;DHT22;11077;50.264;6.798;2022-09-12T06:58:01;12.10;99.90
21830;DHT22;11077;50.264;6.798;2022-09-12T07:00:30;12.30;99.90
21830;DHT22;11077;50.264;6.798;2022-09-12T07:02:57;12.40;99.90
21830;DHT22;11077;50.264;6.798;2022-09-12T07:05:25;12.60;99.90
21830;DHT22;11077;50.264;6.798;2022-09-12T07:07:53;12.70;99.90
21830;DHT22;11077;50.264;6.798;2022-09-12T07:10:20;12.80;99.90
21830;DHT22;11077;50.264;6.798;2022-09-12T07:12:48;13.00;99.90
21830;DHT22;11077;50.264;6.798;2022-09-12T07:15:16;13.20;99.90
21830;DHT22;11077;50.264;6.798;2022-09-12T07:17:45;13.40;99.90
21830;DHT22;11077;50.264;6.798;2022-09-12T07:20:13;13.50;99.90
21830;DHT22;11077;50.264;6.798;2022-09-12T07:22:40;13.70;99.90
21830;DHT22;11077;50.264;6.798;2022-09-12T07:25:08;13.80;99.90
21830;DHT22;11077;50.264;6.798;2022-09-12T07:27:36;14.00;99.90
21830;DHT22;11077;50.264;6.798;2022-09-12T07:30:04;14.20;99.90
21830;DHT22;11077;50.264;6.798;2022-09-12T07:32:32;14.30;99.90
21830;DHT22;11077;50.264;6.798;2022-09-12T07:35:01;14.60;99.90
21830;DHT22;11077;50.264;6.798;2022-09-12T07:37:29;14.70;99.90
21830;DHT22;11077;50.264;6.798;2022-09-12T07:39:57;14.90;99.90
21830;DHT22;11077;50.264;6.798;2022-09-12T07:42:24;14.80;99.90
21830;DHT22;11077;50.264;6.798;2022-09-12T07:44:51;15.20;99.90
21830;DHT22;11077;50.264;6.798;2022-09-12T07:47:19;15.30;99.90
21830;DHT22;11077;50.264;6.798;2022-09-12T07:49:46;15.40;99.90
21830;DHT22;11077;50.264;6.798;2022-09-12T07:52:15;15.50;99.90
21830;DHT22;11077;50.264;6.798;2022-09-12T07:54:42;15.70;99.90
21830;DHT22;11077;50.264;6.798;2022-09-12T07:57:09;15.80;99.90
21830;DHT22;11077;50.264;6.798;2022-09-12T07:59:36;15.90;99.90
21830;DHT22;11077;50.264;6.798;2022-09-12T08:02:10;16.00;99.90
21830;DHT22;11077;50.264;6.798;2022-09-12T08:04:39;16.10;99.90
21830;DHT22;11077;50.264;6.798;2022-09-12T08:07:07;16.20;99.90
21830;DHT22;11077;50.264;6.798;2022-09-12T08:09:36;16.30;99.90
21830;DHT22;11077;50.264;6.798;2022-09-12T08:12:03;16.40;99.90
21830;DHT22;11077;50.264;6.798;2022-09-12T08:14:30;16.50;99.90
21830;DHT22;11077;50.264;6.798;2022-09-12T08:16:58;16.60;99.90
21830;DHT22;11077;50.264;6.798;2022-09-12T08:19:25;16.70;99.90
21830;DHT22;11077;50.264;6.798;2022-09-12T08:21:52;16.80;99.90
21830;DHT22;11077;50.264;6.798;2022-09-12T08:24:20;16.80;99.90
21830;DHT22;11077;50.264;6.798;2022-09-12T08:26:49;16.80;99.90
21830;DHT22;11077;50.264;6.798;2022-09-12T08:29:16;16.90;99.90
21830;DHT22;11077;50.264;6.798;2022-09-12T08:31:44;16.90;99.90
21830;DHT22;11077;50.264;6.798;2022-09-12T08:34:12;17.00;99.90
21830;DHT22;11077;50.264;6.798;2022-09-12T08:36:41;17.10;99.90
21830;DHT22;11077;50.264;6.798;2022-09-12T08:39:11;17.20;99.90
21830;DHT22;11077;50.264;6.798;2022-09-12T08:41:40;17.30;99.90
21830;DHT22;11077;50.264;6.798;2022-09-12T08:47:19;17.60;99.90
21830;DHT22;11077;50.264;6.798;2022-09-12T08:49:54;17.80;99.90
21830;DHT22;11077;50.264;6.798;2022-09-12T08:52:27;17.90;99.90
21830;DHT22;11077;50.264;6.798;2022-09-12T08:54:55;18.00;99.90
21830;DHT22;11077;50.264;6.798;2022-09-12T08:57:23;18.10;99.90
21830;DHT22;11077;50.264;6.798;2022-09-12T08:59:52;18.30;99.90
21830;DHT22;11077;50.264;6.798;2022-09-12T09:02:59;18.40;99.90
21830;DHT22;11077;50.264;6.798;2022-09-12T09:05:43;18.60;99.90
21830;DHT22;11077;50.264;6.798;2022-09-12T09:08:34;18.80;99.90
21830;DHT22;11077;50.264;6.798;2022-09-12T09:11:13;19.00;99.90
21830;DHT22;11077;50.264;6.798;2022-09-12T09:13:52;19.10;99.90
21830;DHT22;11077;50.264;6.798;2022-09-12T09:16:42;19.40;99.90
21830;DHT22;11077;50.264;6.798;2022-09-12T09:19:13;19.60;99.90
21830;DHT22;11077;50.264;6.798;2022-09-12T09:21:49;19.80;99.90
21830;DHT22;11077;50.264;6.798;2022-09-12T09:24:22;20.00;99.90
21830;DHT22;11077;50.264;6.798;2022-09-12T09:26:56;20.20;99.90
21830;DHT22;11077;50.264;6.798;2022-09-12T09:29:26;20.40;99.90
21830;DHT22;11077;50.264;6.798;2022-09-12T09:31:59;20.50;99.90
21830;DHT22;11077;50.264;6.798;2022-09-12T09:34:30;20.50;99.90
21830;DHT22;11077;50.264;6.798;2022-09-12T09:37:04;20.70;99.90
21830;DHT22;11077;50.264;6.798;2022-09-12T09:39:43;20.80;99.90
21830;DHT22;11077;50.264;6.798;2022-09-12T09:42:21;20.90;99.90
21830;DHT22;11077;50.264;6.798;2022-09-12T09:44:54;21.20;99.90
21830;DHT22;11077;50.264;6.798;2022-09-12T09:47:25;21.20;99.90
21830;DHT22;11077;50.264;6.798;2022-09-12T09:49:52;21.20;99.90
21830;DHT22;11077;50.264;6.798;2022-09-12T09:52:24;21.30;99.90
21830;DHT22;11077;50.264;6.798;2022-09-12T09:54:56;21.40;99.90
21830;DHT22;11077;50.264;6.798;2022-09-12T09:57:41;21.70;99.90
21830;DHT22;11077;50.264;6.798;2022-09-12T10:00:27;21.80;99.90
21830;DHT22;11077;50.264;6.798;2022-09-12T10:03:29;22.00;99.90
21830;DHT22;11077;50.264;6.798;2022-09-12T10:05:59;22.10;99.90
21830;DHT22;11077;50.264;6.798;2022-09-12T10:08:29;22.20;99.90
21830;DHT22;11077;50.264;6.798;2022-09-12T10:10:59;22.40;99.90
21830;DHT22;11077;50.264;6.798;2022-09-12T10:13:35;22.60;99.90
21830;DHT22;11077;50.264;6.798;2022-09-12T10:16:04;22.70;99.90
21830;DHT22;11077;50.264;6.798;2022-09-12T10:18:36;22.80;99.90
21830;DHT22;11077;50.264;6.798;2022-09-12T10:21:15;22.80;99.90
21830;DHT22;11077;50.264;6.798;2022-09-12T10:23:44;22.70;99.90
21830;DHT22;11077;50.264;6.798;2022-09-12T10:26:14;22.70;99.90
21830;DHT22;11077;50.264;6.798;2022-09-12T10:28:49;22.80;99.90
21830;DHT22;11077;50.264;6.798;2022-09-12T10:31:24;22.80;99.90
21830;DHT22;11077;50.264;6.798;2022-09-12T10:33:56;22.90;99.90
21830;DHT22;11077;50.264;6.798;2022-09-12T10:36:24;23.10;99.90
21830;DHT22;11077;50.264;6.798;2022-09-12T10:38:54;23.30;99.90
21830;DHT22;11077;50.264;6.798;2022-09-12T10:41:23;23.50;99.90
21830;DHT22;11077;50.264;6.798;2022-09-12T10:44:05;23.60;99.90
21830;DHT22;11077;50.264;6.798;2022-09-12T10:46:36;23.80;99.90
21830;DHT22;11077;50.264;6.798;2022-09-12T10:49:23;23.80;99.90
21830;DHT22;11077;50.264;6.798;2022-09-12T10:51:54;23.80;99.90
21830;DHT22;11077;50.264;6.798;2022-09-12T10:54:26;23.90;99.90
21830;DHT22;11077;50.264;6.798;2022-09-12T10:57:12;24.10;99.90
21830;DHT22;11077;50.264;6.798;2022-09-12T10:59:56;24.30;99.60
21830;DHT22;11077;50.264;6.798;2022-09-12T11:02:27;24.50;98.90
21830;DHT22;11077;50.264;6.798;2022-09-12T11:05:02;24.60;99.40
21830;DHT22;11077;50.264;6.798;2022-09-12T11:07:41;24.70;98.20
21830;DHT22;11077;50.264;6.798;2022-09-12T11:10:24;24.70;98.20
21830;DHT22;11077;50.264;6.798;2022-09-12T11:12:59;24.70;98.50
21830;DHT22;11077;50.264;6.798;2022-09-12T11:15:48;24.80;99.00
21830;DHT22;11077;50.264;6.798;2022-09-12T11:18:31;24.90;98.30
21830;DHT22;11077;50.264;6.798;2022-09-12T11:21:15;24.80;97.40
21830;DHT22;11077;50.264;6.798;2022-09-12T11:24:18;24.70;97.10
21830;DHT22;11077;50.264;6.798;2022-09-12T11:27:04;24.70;96.10
21830;DHT22;11077;50.264;6.798;2022-09-12T11:29:45;24.70;97.80
21830;DHT22;11077;50.264;6.798;2022-09-12T11:32:50;24.90;98.00
21830;DHT22;11077;50.264;6.798;2022-09-12T11:35:23;25.20;97.40
21830;DHT22;11077;50.264;6.798;2022-09-12T11:38:13;25.30;96.10
21830;DHT22;11077;50.264;6.798;2022-09-12T11:40:46;25.20;95.00
21830;DHT22;11077;50.264;6.798;2022-09-12T11:43:23;25.10;94.40
21830;DHT22;11077;50.264;6.798;2022-09-12T11:45:52;25.00;95.30
21830;DHT22;11077;50.264;6.798;2022-09-12T11:48:31;25.00;95.30
21830;DHT22;11077;50.264;6.798;2022-09-12T11:51:02;25.10;95.40
21830;DHT22;11077;50.264;6.798;2022-09-12T11:53:36;25.30;96.20
21830;DHT22;11077;50.264;6.798;2022-09-12T11:56:09;25.50;96.20
21830;DHT22;11077;50.264;6.798;2022-09-12T11:58:41;25.60;94.00
21830;DHT22;11077;50.264;6.798;2022-09-12T12:01:16;25.70;92.90
21830;DHT22;11077;50.264;6.798;2022-09-12T12:03:45;25.80;93.70
21830;DHT22;11077;50.264;6.798;2022-09-12T12:06:16;25.80;93.00
21830;DHT22;11077;50.264;6.798;2022-09-12T12:08:47;25.80;92.60
21830;DHT22;11077;50.264;6.798;2022-09-12T12:11:27;25.70;92.70
21830;DHT22;11077;50.264;6.798;2022-09-12T12:13:58;25.50;92.60
21830;DHT22;11077;50.264;6.798;2022-09-12T12:16:28;25.40;92.90
21830;DHT22;11077;50.264;6.798;2022-09-12T12:18:57;25.20;92.10
21830;DHT22;11077;50.264;6.798;2022-09-12T12:21:37;25.00;92.50
21830;DHT22;11077;50.264;6.798;2022-09-12T12:24:14;25.00;91.90
21830;DHT22;11077;50.264;6.798;2022-09-12T12:26:55;25.00;92.00
21830;DHT22;11077;50.264;6.798;2022-09-12T12:29:38;25.00;92.60
21830;DHT22;11077;50.264;6.798;2022-09-12T12:32:21;25.10;93.30
21830;DHT22;11077;50.264;6.798;2022-09-12T12:34:49;25.20;93.80
21830;DHT22;11077;50.264;6.798;2022-09-12T12:37:49;25.20;92.80
21830;DHT22;11077;50.264;6.798;2022-09-12T12:40:25;25.20;92.80
21830;DHT22;11077;50.264;6.798;2022-09-12T12:43:00;25.10;91.70
21830;DHT22;11077;50.264;6.798;2022-09-12T12:45:47;25.20;92.40
21830;DHT22;11077;50.264;6.798;2022-09-12T12:48:15;25.10;91.30
21830;DHT22;11077;50.264;6.798;2022-09-12T12:50:45;25.00;92.90
21830;DHT22;11077;50.264;6.798;2022-09-12T12:53:19;24.70;93.00
21830;DHT22;11077;50.264;6.798;2022-09-12T12:55:50;24.60;93.30
21830;DHT22;11077;50.264;6.798;2022-09-12T12:58:28;24.60;92.40
21830;DHT22;11077;50.264;6.798;2022-09-12T13:01:10;24.60;91.50
21830;DHT22;11077;50.264;6.798;2022-09-12T13:03:40;24.40;91.40
21830;DHT22;11077;50.264;6.798;2022-09-12T13:06:23;24.20;92.30
21830;DHT22;11077;50.264;6.798;2022-09-12T13:08:58;24.00;92.30
21830;DHT22;11077;50.264;6.798;2022-09-12T13:11:31;23.90;92.20
21830;DHT22;11077;50.264;6.798;2022-09-12T13:14:01;23.70;91.50
21830;DHT22;11077;50.264;6.798;2022-09-12T13:16:31;23.60;92.10
21830;DHT22;11077;50.264;6.798;2022-09-12T13:19:02;23.50;91.90
21830;DHT22;11077;50.264;6.798;2022-09-12T13:21:30;23.40;92.00
21830;DHT22;11077;50.264;6.798;2022-09-12T13:23:59;23.40;91.80
21830;DHT22;11077;50.264;6.798;2022-09-12T13:26:33;23.30;91.90
21830;DHT22;11077;50.264;6.798;2022-09-12T13:29:13;23.30;91.90
21830;DHT22;11077;50.264;6.798;2022-09-12T13:31:42;23.20;92.20
21830;DHT22;11077;50.264;6.798;2022-09-12T13:34:12;23.20;92.60
21830;DHT22;11077;50.264;6.798;2022-09-12T13:37:00;23.10;92.40
21830;DHT22;11077;50.264;6.798;2022-09-12T13:39:42;23.00;92.50
21830;DHT22;11077;50.264;6.798;2022-09-12T13:45:13;22.90;93.50
21830;DHT22;11077;50.264;6.798;2022-09-12T13:47:44;22.90;93.40
21830;DHT22;11077;50.264;6.798;2022-09-12T13:50:16;22.80;93.30
21830;DHT22;11077;50.264;6.798;2022-09-12T13:52:47;22.80;94.30
21830;DHT22;11077;50.264;6.798;2022-09-12T13:55:28;22.80;94.50
21830;DHT22;11077;50.264;6.798;2022-09-12T13:57:59;22.80;94.40
21830;DHT22;11077;50.264;6.798;2022-09-12T14:00:27;22.90;94.20
21830;DHT22;11077;50.264;6.798;2022-09-12T14:02:57;22.80;94.70
21830;DHT22;11077;50.264;6.798;2022-09-12T14:05:43;22.80;94.90
21830;DHT22;11077;50.264;6.798;2022-09-12T14:08:13;22.80;94.80
21830;DHT22;11077;50.264;6.798;2022-09-12T14:10:43;22.80;95.00
21830;DHT22;11077;50.264;6.798;2022-09-12T14:13:21;22.80;94.60
21830;DHT22;11077;50.264;6.798;2022-09-12T14:15:51;22.80;95.10
21830;DHT22;11077;50.264;6.798;2022-09-12T14:18:22;22.80;94.70
21830;DHT22;11077;50.264;6.798;2022-09-12T14:20:51;22.70;94.60
21830;DHT22;11077;50.264;6.798;2022-09-12T14:23:25;22.70;94.50
21830;DHT22;11077;50.264;6.798;2022-09-12T14:25:54;22.60;94.50
21830;DHT22;11077;50.264;6.798;2022-09-12T14:28:24;22.60;94.60
21830;DHT22;11077;50.264;6.798;2022-09-12T14:30:58;22.50;94.60
21830;DHT22;11077;50.264;6.798;2022-09-12T14:33:27;22.50;94.40
21830;DHT22;11077;50.264;6.798;2022-09-12T14:36:09;22.60;94.80
21830;DHT22;11077;50.264;6.798;2022-09-12T14:38:40;22.60;95.20
21830;DHT22;11077;50.264;6.798;2022-09-12T14:41:09;22.70;95.40
21830;DHT22;11077;50.264;6.798;2022-09-12T14:43:41;22.70;94.70
21830;DHT22;11077;50.264;6.798;2022-09-12T14:46:16;22.70;93.90
21830;DHT22;11077;50.264;6.798;2022-09-12T14:48:49;22.60;94.50
21830;DHT22;11077;50.264;6.798;2022-09-12T14:51:20;22.60;93.90
21830;DHT22;11077;50.264;6.798;2022-09-12T14:53:49;22.50;93.90
21830;DHT22;11077;50.264;6.798;2022-09-12T14:56:20;22.40;94.10
21830;DHT22;11077;50.264;6.798;2022-09-12T14:58:49;22.40;94.30
21830;DHT22;11077;50.264;6.798;2022-09-12T15:01:24;22.40;94.80
21830;DHT22;11077;50.264;6.798;2022-09-12T15:03:53;22.40;94.70
21830;DHT22;11077;50.264;6.798;2022-09-12T15:06:27;22.40;95.30
21830;DHT22;11077;50.264;6.798;2022-09-12T15:08:56;22.40;94.90
21830;DHT22;11077;50.264;6.798;2022-09-12T15:11:24;22.40;94.80
21830;DHT22;11077;50.264;6.798;2022-09-12T15:13:53;22.40;95.00
21830;DHT22;11077;50.264;6.798;2022-09-12T15:16:20;22.40;94.70
21830;DHT22;11077;50.264;6.798;2022-09-12T15:18:48;22.40;94.80
21830;DHT22;11077;50.264;6.798;2022-09-12T15:21:17;22.40;94.90
21830;DHT22;11077;50.264;6.798;2022-09-12T15:23:46;22.40;95.50
21830;DHT22;11077;50.264;6.798;2022-09-12T15:26:16;22.40;95.10
21830;DHT22;11077;50.264;6.798;2022-09-12T15:28:43;22.50;95.30
21830;DHT22;11077;50.264;6.798;2022-09-12T15:31:17;22.40;93.80
21830;DHT22;11077;50.264;6.798;2022-09-12T15:33:48;22.40;93.60
21830;DHT22;11077;50.264;6.798;2022-09-12T15:36:17;22.40;94.50
21830;DHT22;11077;50.264;6.798;2022-09-12T15:38:45;22.40;95.20
21830;DHT22;11077;50.264;6.798;2022-09-12T15:41:15;22.40;92.70
21830;DHT22;11077;50.264;6.798;2022-09-12T15:43:44;22.30;93.40
21830;DHT22;11077;50.264;6.798;2022-09-12T15:46:16;22.40;93.10
21830;DHT22;11077;50.264;6.798;2022-09-12T15:48:46;22.30;93.40
21830;DHT22;11077;50.264;6.798;2022-09-12T15:51:16;22.40;94.10
21830;DHT22;11077;50.264;6.798;2022-09-12T15:53:44;22.40;93.60
21830;DHT22;11077;50.264;6.798;2022-09-12T15:56:13;22.50;94.00
21830;DHT22;11077;50.264;6.798;2022-09-12T15:58:40;22.50;93.40
21830;DHT22;11077;50.264;6.798;2022-09-12T16:01:08;22.40;94.20
21830;DHT22;11077;50.264;6.798;2022-09-12T16:03:38;22.40;93.80
21830;DHT22;11077;50.264;6.798;2022-09-12T16:06:06;22.40;93.80
21830;DHT22;11077;50.264;6.798;2022-09-12T16:08:34;22.40;93.40
21830;DHT22;11077;50.264;6.798;2022-09-12T16:11:03;22.40;93.80
21830;DHT22;11077;50.264;6.798;2022-09-12T16:13:31;22.30;93.20